createdAt,value
2022-09-15T00:12:30.356Z,100554.41
2022-09-15T00:14:57.154Z,100556.50
2022-09-15T00:17:24.038Z,100553.28
2022-09-15T00:19:50.815Z,100552.56
2022-09-15T00:22:19.859Z,100555.44
2022-09-15T00:24:49.224Z,100550.19
2022-09-15T00:27:16.029Z,100550.25
2022-09-15T00:29:44.410Z,100560.78
2022-09-15T00:32:13.428Z,100559.63
2022-09-15T00:34:54.188Z,100547.53
2022-09-15T00:37:27.041Z,100555.22
2022-09-15T00:39:58.964Z,100555.19
2022-09-15T00:42:25.969Z,100555.63
2022-09-15T00:45:03.459Z,100561.34
2022-09-15T00:47:41.238Z,100563.78
2022-09-15T00:50:17.080Z,100555.31
2022-09-15T00:52:57.248Z,100563.00
2022-09-15T00:56:01.483Z,100569.88
2022-09-15T02:07:20.661Z,100552.91
2022-09-15T02:10:06.862Z,100554.56
2022-09-15T02:12:44.797Z,100555.38
2022-09-15T02:15:25.053Z,100553.38
2022-09-15T04:42:07.851Z,100557.88
2022-09-15T04:52:41.571Z,100563.13
2022-09-15T04:57:47.029Z,100566.38
2022-09-15T05:00:14.909Z,100567.59
2022-09-15T05:02:41.901Z,100569.19
2022-09-15T05:05:08.992Z,100559.50
2022-09-15T05:07:35.742Z,100569.16
2022-09-15T05:10:02.556Z,100561.50
2022-09-15T05:12:29.324Z,100572.00
2022-09-15T05:14:57.440Z,100576.41
2022-09-15T05:17:26.798Z,100574.78
2022-09-15T05:19:53.763Z,100575.59
2022-09-15T05:22:20.673Z,100578.84
2022-09-15T05:24:47.438Z,100579.69
2022-09-15T05:27:14.162Z,100576.84
2022-09-15T05:29:40.907Z,100587.78
2022-09-15T05:32:09.026Z,100582.91
2022-09-15T05:34:35.823Z,100578.88
2022-09-15T05:37:03.007Z,100580.91
2022-09-15T05:39:29.734Z,100580.91
2022-09-15T05:41:56.496Z,100582.13
2022-09-15T05:44:23.224Z,100585.38
2022-09-15T05:46:50.221Z,100583.72
2022-09-15T05:49:18.423Z,100577.25
2022-09-15T05:51:45.197Z,100591.03
2022-09-15T05:54:11.978Z,100593.03
2022-09-15T05:56:38.768Z,100601.94
2022-09-15T05:59:05.629Z,100608.00
2022-09-15T06:01:32.789Z,100600.72
2022-09-15T06:04:00.037Z,100596.28
2022-09-15T06:06:28.207Z,100600.34
2022-09-15T06:08:58.976Z,100610.03
2022-09-15T06:11:28.301Z,100612.91
2022-09-15T06:13:55.691Z,100612.09
2022-09-15T06:16:23.952Z,100625.84
2022-09-15T06:18:52.344Z,100619.78
2022-09-15T06:21:21.354Z,100622.59
2022-09-15T06:23:55.355Z,100627.06
2022-09-15T06:26:24.874Z,100627.47
2022-09-15T06:28:53.910Z,100632.34
2022-09-15T06:31:21.890Z,100635.19
2022-09-15T06:33:53.064Z,100631.53
2022-09-15T06:36:21.775Z,100634.34
2022-09-15T06:38:48.774Z,100639.63
2022-09-15T06:41:16.711Z,100648.53
2022-09-15T06:43:45.502Z,100653.34
2022-09-15T06:46:18.747Z,100655.78
2022-09-15T06:48:53.729Z,100659.81
2022-09-15T06:51:23.094Z,100665.88
2022-09-15T06:56:18.775Z,100665.06
2022-09-15T06:58:50.570Z,100665.44
2022-09-15T07:01:22.631Z,100671.28
2022-09-15T07:03:49.924Z,100669.75
2022-09-15T07:06:17.592Z,100682.16
2022-09-15T07:08:45.436Z,100669.66
2022-09-15T07:11:13.177Z,100670.41
2022-09-15T07:13:40.568Z,100677.78
2022-09-15T07:16:11.624Z,100675.66
2022-09-15T07:18:43.004Z,100681.66
2022-09-15T07:21:13.163Z,100683.44
2022-09-15T07:23:40.602Z,100670.75
2022-09-15T07:26:09.971Z,100673.16
2022-09-15T07:28:37.523Z,100674.38
2022-09-15T07:37:52.428Z,100687.41
2022-09-15T07:40:22.172Z,100694.59
2022-09-15T07:42:49.058Z,100702.63
2022-09-15T07:45:15.894Z,100698.19
2022-09-15T07:50:47.035Z,100704.19
2022-09-15T07:58:35.833Z,100713.06
2022-09-15T08:01:03.764Z,100713.41
2022-09-15T08:03:31.155Z,100711.75
2022-09-15T08:05:58.856Z,100708.53
2022-09-15T08:11:18.398Z,100712.53
2022-09-15T08:13:55.312Z,100714.03
2022-09-15T08:16:24.529Z,100715.00
2022-09-15T08:21:30.119Z,100723.66
2022-09-15T08:23:58.251Z,100726.88
2022-09-15T08:26:26.403Z,100730.53
2022-09-15T08:28:53.306Z,100736.47
2022-09-15T08:31:24.250Z,100737.75
2022-09-15T08:33:54.064Z,100742.06
2022-09-15T08:36:21.583Z,100749.84
2022-09-15T08:38:48.759Z,100748.06
2022-09-15T08:41:20.125Z,100748.53
2022-09-15T08:43:52.386Z,100749.66
2022-09-15T08:46:26.420Z,100751.16
2022-09-15T08:49:02.722Z,100761.84
2022-09-15T08:51:34.952Z,100761.41
2022-09-15T08:54:07.395Z,100761.94
2022-09-15T08:56:37.055Z,100764.63
2022-09-15T08:59:04.305Z,100768.47
2022-09-15T09:01:50.335Z,100767.19
2022-09-15T09:04:52.844Z,100764.25
2022-09-15T09:07:34.195Z,100765.53
2022-09-15T09:10:08.114Z,100770.09
2022-09-15T09:12:53.300Z,100775.97
2022-09-15T09:15:26.877Z,100766.88
2022-09-15T09:18:06.919Z,100773.81
2022-09-15T09:20:47.754Z,100772.72
2022-09-15T09:23:17.887Z,100766.19
2022-09-15T09:25:45.680Z,100772.41
2022-09-15T09:28:24.116Z,100777.16
2022-09-15T09:30:50.899Z,100773.84
2022-09-15T09:33:28.255Z,100774.97
2022-09-15T09:35:58.180Z,100780.28
2022-09-15T09:38:27.500Z,100780.75
2022-09-15T09:40:58.582Z,100765.97
2022-09-15T09:43:30.112Z,100772.16
2022-09-15T09:45:57.118Z,100777.56
2022-09-15T09:48:27.432Z,100773.53
2022-09-15T09:50:55.214Z,100772.09
2022-09-15T09:53:27.671Z,100780.94
2022-09-15T09:55:55.923Z,100775.88
2022-09-15T09:58:25.986Z,100780.44
2022-09-15T10:00:53.219Z,100787.53
2022-09-15T10:03:21.810Z,100783.59
2022-09-15T10:06:04.784Z,100793.84
2022-09-15T10:08:32.045Z,100795.56
2022-09-15T10:11:04.706Z,100808.31
2022-09-15T10:13:32.849Z,100796.94
2022-09-15T10:16:02.451Z,100806.13
2022-09-15T10:18:33.437Z,100798.19
2022-09-15T10:21:03.442Z,100801.06
2022-09-15T10:23:32.017Z,100799.06
2022-09-15T10:26:21.038Z,100799.84
2022-09-15T10:29:12.615Z,100798.16
2022-09-15T10:31:39.821Z,100794.94
2022-09-15T10:34:28.375Z,100797.25
2022-09-15T10:37:06.412Z,100800.66
2022-09-15T10:39:48.350Z,100809.59
2022-09-15T10:42:23.987Z,100801.19
2022-09-15T10:45:03.753Z,100801.63
2022-09-15T10:47:42.750Z,100803.19
2022-09-15T10:50:16.098Z,100803.78
2022-09-15T10:53:01.025Z,100790.22
2022-09-15T10:55:52.282Z,100801.75
2022-09-15T10:58:39.840Z,100805.69
2022-09-15T11:01:34.603Z,100803.13
2022-09-15T11:04:27.796Z,100803.69
2022-09-15T11:07:03.876Z,100801.88
2022-09-15T11:09:34.713Z,100806.91
2022-09-15T11:12:27.096Z,100799.72
2022-09-15T11:15:14.696Z,100802.06
2022-09-15T11:17:55.883Z,100811.09
2022-09-15T11:20:50.031Z,100809.06
2022-09-15T11:23:21.541Z,100816.31
2022-09-15T11:25:57.415Z,100817.06
2022-09-15T11:28:29.873Z,100817.56
2022-09-15T11:31:02.486Z,100821.72
2022-09-15T11:33:34.756Z,100814.81
2022-09-15T11:36:06.790Z,100815.97
2022-09-15T11:38:40.614Z,100819.44
2022-09-15T11:41:24.205Z,100820.38
2022-09-15T11:44:16.121Z,100823.97
2022-09-15T11:47:15.686Z,100824.31
2022-09-15T11:49:47.541Z,100823.88
2022-09-15T11:52:27.343Z,100822.41
2022-09-15T11:55:01.060Z,100828.28
2022-09-15T11:57:34.972Z,100823.81
2022-09-15T12:00:07.064Z,100838.00
2022-09-15T12:02:42.613Z,100841.09
2022-09-15T12:05:13.816Z,100841.56
2022-09-15T12:07:48.382Z,100838.38
2022-09-15T12:10:20.579Z,100834.81
2022-09-15T12:12:51.503Z,100831.84
2022-09-15T12:15:20.362Z,100830.13
2022-09-15T12:17:54.408Z,100834.66
2022-09-15T12:20:26.434Z,100829.91
2022-09-15T12:23:02.402Z,100837.44
2022-09-15T12:25:34.582Z,100834.41
2022-09-15T12:28:37.165Z,100833.91
2022-09-15T12:31:25.514Z,100832.31
2022-09-15T12:33:57.839Z,100831.13
2022-09-15T12:36:46.977Z,100827.69
2022-09-15T12:39:24.442Z,100836.97
2022-09-15T12:41:53.404Z,100834.19
2022-09-15T12:44:29.482Z,100832.03
2022-09-15T12:46:59.129Z,100835.63
2022-09-15T12:49:30.786Z,100824.19
2022-09-15T12:51:58.917Z,100836.63
2022-09-15T12:54:29.692Z,100847.25
2022-09-15T12:56:57.623Z,100841.63
2022-09-15T12:59:27.125Z,100847.28
2022-09-15T13:01:55.187Z,100853.75
2022-09-15T13:04:53.030Z,100844.41
2022-09-15T13:07:34.218Z,100846.81
2022-09-15T13:10:27.122Z,100850.66
2022-09-15T13:13:10.948Z,100855.25
2022-09-15T13:15:43.084Z,100848.59
2022-09-15T13:18:12.233Z,100849.94
2022-09-15T13:20:43.300Z,100843.19
2022-09-15T13:23:15.602Z,100843.78
2022-09-15T13:25:45.822Z,100846.53
2022-09-15T13:31:03.152Z,100849.75
2022-09-15T13:40:07.234Z,100857.19
2022-09-15T13:42:51.531Z,100854.34
2022-09-15T13:45:43.812Z,100854.84
2022-09-15T13:48:45.434Z,100860.81
2022-09-15T13:51:19.541Z,100860.09
2022-09-15T13:53:51.782Z,100869.47
2022-09-15T13:56:24.319Z,100862.09
2022-09-15T13:58:55.095Z,100862.75
2022-09-15T14:01:25.827Z,100852.47
2022-09-15T14:03:56.552Z,100855.75
2022-09-15T14:06:26.090Z,100869.03
2022-09-15T14:08:55.947Z,100856.38
2022-09-15T14:11:26.756Z,100859.16
2022-09-15T14:13:55.209Z,100854.78
2022-09-15T14:16:34.275Z,100853.69
2022-09-15T14:19:17.150Z,100852.44
2022-09-15T14:21:49.142Z,100850.75
2022-09-15T14:24:21.051Z,100853.31
2022-09-15T14:26:48.855Z,100861.81
2022-09-15T14:29:20.548Z,100860.47
2022-09-15T14:31:48.722Z,100860.91
2022-09-15T14:34:20.731Z,100856.53
2022-09-15T14:37:03.490Z,100868.59
2022-09-15T14:39:30.590Z,100863.13
2022-09-15T14:47:20.401Z,100864.88
2022-09-15T14:49:49.039Z,100863.16
2022-09-15T14:52:28.836Z,100874.56
2022-09-15T14:55:00.488Z,100867.38
2022-09-15T14:57:31.316Z,100878.00
2022-09-15T15:00:01.832Z,100876.19
2022-09-15T15:02:38.915Z,100868.91
2022-09-15T15:05:11.042Z,100878.06
2022-09-15T15:07:39.019Z,100885.47
2022-09-15T15:10:14.363Z,100874.84
2022-09-15T15:12:43.704Z,100873.88
2022-09-15T15:15:12.607Z,100867.53
2022-09-15T15:17:43.098Z,100875.34
2022-09-15T15:20:17.859Z,100879.09
2022-09-15T15:22:46.191Z,100888.78
2022-09-15T15:25:28.520Z,100875.06
2022-09-15T15:27:56.743Z,100876.50
2022-09-15T15:30:35.853Z,100880.16
2022-09-15T15:33:04.693Z,100886.75
2022-09-15T15:35:35.809Z,100891.13
2022-09-15T15:38:06.305Z,100895.09
2022-09-15T15:40:35.510Z,100887.41
2022-09-15T15:43:06.103Z,100896.03
2022-09-15T15:45:34.728Z,100889.53
2022-09-15T15:48:03.011Z,100893.16
2022-09-15T15:50:32.447Z,100890.81
2022-09-15T15:53:02.553Z,100883.00
2022-09-15T15:55:37.951Z,100889.59
2022-09-15T15:58:05.033Z,100892.53
2022-09-15T16:00:39.097Z,100898.59
2022-09-15T16:03:06.407Z,100900.63
2022-09-15T16:05:34.516Z,100898.53
2022-09-15T16:10:44.820Z,100903.78
2022-09-15T16:13:14.441Z,100900.50
2022-09-15T16:15:41.747Z,100902.66
2022-09-15T16:18:08.676Z,100906.81
2022-09-15T16:20:35.449Z,100897.19
2022-09-15T16:23:03.104Z,100895.22
2022-09-15T16:25:36.647Z,100888.72
2022-09-15T16:28:04.950Z,100899.69
2022-09-15T16:30:32.310Z,100895.16
2022-09-15T16:32:59.604Z,100893.84
2022-09-15T16:35:37.388Z,100890.59
2022-09-15T16:38:06.391Z,100893.97
2022-09-15T16:40:33.504Z,100893.56
2022-09-15T16:43:00.665Z,100897.81
2022-09-15T16:45:35.266Z,100899.38
2022-09-15T16:48:05.119Z,100891.69
2022-09-15T16:53:17.842Z,100903.94
2022-09-15T16:55:46.706Z,100907.19
2022-09-15T16:58:15.246Z,100901.94
2022-09-15T17:00:45.143Z,100899.50
2022-09-15T17:03:16.525Z,100899.00
2022-09-15T17:05:48.557Z,100908.00
2022-09-15T17:08:17.085Z,100914.75
2022-09-15T17:10:44.487Z,100908.81
2022-09-15T17:15:42.333Z,100906.41
2022-09-15T17:18:13.375Z,100905.66
2022-09-15T17:20:40.238Z,100904.44
2022-09-15T17:23:17.873Z,100901.97
2022-09-15T17:25:51.350Z,100906.19
2022-09-15T17:28:21.140Z,100909.00
2022-09-15T17:30:49.357Z,100911.44
2022-09-15T17:33:19.190Z,100909.03
2022-09-15T17:35:46.923Z,100908.22
2022-09-15T17:38:14.358Z,100916.34
2022-09-15T17:40:41.526Z,100905.38
2022-09-15T17:43:14.165Z,100911.94
2022-09-15T17:45:41.110Z,100915.56
2022-09-15T17:48:09.309Z,100904.63
2022-09-15T17:50:38.415Z,100907.03
2022-09-15T17:53:12.756Z,100917.59
2022-09-15T17:55:40.381Z,100922.88
2022-09-15T17:58:08.082Z,100917.28
2022-09-15T18:00:37.016Z,100907.53
2022-09-15T18:03:06.136Z,100917.22
2022-09-15T18:05:35.106Z,100916.41
2022-09-15T18:08:05.585Z,100916.44
2022-09-15T18:10:34.302Z,100926.22
2022-09-15T18:13:01.992Z,100929.16
2022-09-15T18:15:31.554Z,100923.06
2022-09-15T18:18:02.847Z,100933.19
2022-09-15T18:20:32.072Z,100934.34
2022-09-15T18:22:59.251Z,100933.94
2022-09-15T18:25:30.999Z,100931.13
2022-09-15T18:27:58.283Z,100942.06
2022-09-15T18:30:27.199Z,100932.78
2022-09-15T18:32:54.445Z,100936.06
2022-09-15T18:35:22.168Z,100940.88
2022-09-15T18:37:54.246Z,100936.84
2022-09-15T18:40:21.345Z,100947.00
2022-09-15T18:42:49.624Z,100942.53
2022-09-15T18:45:18.320Z,100944.94
2022-09-15T18:47:48.812Z,100943.75
2022-09-15T18:50:17.508Z,100940.91
2022-09-15T18:52:44.736Z,100938.88
2022-09-15T18:55:15.358Z,100942.50
2022-09-15T18:57:42.964Z,100953.88
2022-09-15T19:00:14.144Z,100955.06
2022-09-15T19:02:41.192Z,100955.09
2022-09-15T19:05:11.451Z,100953.06
2022-09-15T19:07:38.904Z,100948.59
2022-09-15T19:10:06.972Z,100957.13
2022-09-15T19:12:35.655Z,100959.16
2022-09-15T19:15:03.067Z,100958.31
2022-09-15T19:17:31.499Z,100956.72
2022-09-15T19:20:00.406Z,100960.34
2022-09-15T19:22:27.356Z,100963.59
2022-09-15T19:24:54.462Z,100961.97
2022-09-15T19:27:21.402Z,100960.34
2022-09-15T19:29:48.385Z,100966.03
2022-09-15T19:32:18.334Z,100969.25
2022-09-15T19:34:47.758Z,100967.22
2022-09-15T19:37:18.692Z,100970.06
2022-09-15T19:39:46.688Z,100972.47
2022-09-15T19:44:47.819Z,100969.25
2022-09-15T19:47:14.972Z,100973.28
2022-09-15T19:49:41.759Z,100974.09
2022-09-15T19:52:09.948Z,100973.28
2022-09-15T19:54:36.770Z,100963.56
2022-09-15T19:57:04.116Z,100977.31
2022-09-15T19:59:31.990Z,100978.53
2022-09-15T20:01:59.740Z,100970.41
2022-09-15T20:04:26.960Z,100972.44
2022-09-15T20:06:53.756Z,100970.84
2022-09-15T20:09:22.252Z,100974.09
2022-09-15T20:11:49.275Z,100973.69
2022-09-15T20:14:16.485Z,100968.81
2022-09-15T20:16:43.469Z,100975.72
2022-09-15T20:19:10.392Z,100979.75
2022-09-15T20:21:49.850Z,100983.00
2022-09-15T20:24:18.288Z,100978.13
2022-09-15T20:26:46.503Z,100979.72
2022-09-15T20:29:13.392Z,100982.13
2022-09-15T20:31:40.834Z,100988.22
2022-09-15T20:34:07.649Z,100994.28
2022-09-15T20:36:36.577Z,100990.69
2022-09-15T20:39:06.768Z,100986.63
2022-09-15T20:41:33.642Z,100991.09
2022-09-15T20:44:02.170Z,100991.91
2022-09-15T20:46:29.406Z,100997.59
2022-09-15T20:48:56.281Z,101000.41
2022-09-15T20:51:31.514Z,101001.22
2022-09-15T20:54:00.157Z,101005.72
2022-09-15T20:56:28.657Z,101002.41
2022-09-15T20:58:57.049Z,101003.16
2022-09-15T21:01:26.927Z,101006.81
2022-09-15T21:03:55.363Z,101000.72
2022-09-15T21:06:24.052Z,101007.63
2022-09-15T21:08:51.101Z,101007.25
2022-09-15T21:11:20.253Z,101009.22
2022-09-15T21:13:48.218Z,101004.78
2022-09-15T21:16:17.412Z,101004.78
2022-09-15T21:18:46.416Z,101008.88
2022-09-15T21:21:15.331Z,101008.47
2022-09-15T21:23:43.972Z,101000.72
2022-09-15T21:26:12.885Z,101006.47
2022-09-15T21:28:40.201Z,101016.16
2022-09-15T21:31:09.484Z,101015.66
2022-09-15T21:33:37.289Z,101016.94
2022-09-15T21:36:09.477Z,101015.75
2022-09-15T21:38:37.556Z,101025.06
2022-09-15T21:41:06.416Z,101021.44
2022-09-15T21:43:35.947Z,101025.34
2022-09-15T21:46:04.900Z,101020.56
2022-09-15T21:48:32.694Z,101025.94
2022-09-15T21:51:00.033Z,101021.50
2022-09-15T21:53:28.969Z,101016.16
2022-09-15T21:55:56.655Z,101014.16
2022-09-15T21:58:26.093Z,101014.09
2022-09-15T22:00:53.232Z,101010.91
2022-09-15T22:03:20.856Z,101017.66
2022-09-15T22:05:48.188Z,101014.88
2022-09-15T22:08:16.259Z,101009.59
2022-09-15T22:10:44.536Z,101018.47
2022-09-15T22:13:12.795Z,101008.72
2022-09-15T22:15:39.588Z,101012.28
2022-09-15T22:18:07.397Z,101010.56
2022-09-15T22:20:37.155Z,101009.59
2022-09-15T22:23:11.396Z,101004.53
2022-09-15T22:25:45.068Z,101005.59
2022-09-15T22:28:13.301Z,101011.06
2022-09-15T22:30:40.462Z,101020.72
2022-09-15T22:33:07.208Z,101019.81
2022-09-15T22:35:33.981Z,101009.63
2022-09-15T22:38:00.777Z,101017.72
2022-09-15T22:40:29.548Z,101022.03
2022-09-15T22:42:56.324Z,101012.69
2022-09-15T22:45:24.590Z,101014.25
2022-09-15T22:47:51.344Z,101014.44
2022-09-15T22:50:18.106Z,101012.34
2022-09-15T22:52:45.002Z,101014.78
2022-09-15T22:55:11.741Z,101012.56
2022-09-15T22:57:39.645Z,101017.66
2022-09-15T23:00:08.400Z,101015.63
2022-09-15T23:02:36.567Z,101020.78
2022-09-15T23:05:03.639Z,101015.94
2022-09-15T23:07:30.403Z,101008.88
2022-09-15T23:09:58.327Z,101018.03
2022-09-15T23:12:25.309Z,101018.34
2022-09-15T23:14:52.070Z,101014.19
2022-09-15T23:17:18.919Z,101003.13
2022-09-15T23:19:47.251Z,101013.16
2022-09-15T23:22:14.249Z,101000.84
2022-09-15T23:24:41.000Z,101004.41
2022-09-15T23:27:07.797Z,101004.72
2022-09-15T23:29:34.579Z,101004.75
2022-09-15T23:32:01.747Z,101007.00
2022-09-15T23:34:28.512Z,101003.22
2022-09-15T23:36:57.101Z,101003.19
2022-09-15T23:39:24.198Z,100999.81
2022-09-15T23:41:50.946Z,100998.50
2022-09-15T23:44:17.710Z,100998.50
2022-09-15T23:46:44.639Z,100991.09
2022-09-15T23:49:14.433Z,100993.06
2022-09-15T23:51:44.814Z,101002.63
2022-09-15T23:54:13.098Z,100996.63
2022-09-15T23:56:39.931Z,101000.22
2022-09-15T23:59:07.081Z,101004.19
